sensor_id;sensor_type;location;lat;lon;timestamp;P1;durP1;ratioP1;P2;durP2;ratioP2
9874;SDS011;4976;46.786;7.632;2023-03-19T06:46:55;4.70;;;2.10;;
9874;SDS011;4976;46.786;7.632;2023-03-19T15:15:16;2.23;;;2.00;;
9874;SDS011;4976;46.786;7.632;2023-03-19T15:17:57;2.00;;;1.90;;
9874;SDS011;4976;46.786;7.632;2023-03-19T15:20:27;3.17;;;2.47;;
9874;SDS011;4976;46.786;7.632;2023-03-19T15:23:00;3.17;;;2.70;;
9874;SDS011;4976;46.786;7.632;2023-03-19T15:25:31;3.60;;;2.67;;
9874;SDS011;4976;46.786;7.632;2023-03-19T15:28:05;3.53;;;3.03;;
9874;SDS011;4976;46.786;7.632;2023-03-19T15:30:35;3.40;;;2.43;;
9874;SDS011;4976;46.786;7.632;2023-03-19T15:33:03;2.70;;;2.47;;
9874;SDS011;4976;46.786;7.632;2023-03-19T15:35:34;2.90;;;2.43;;
9874;SDS011;4976;46.786;7.632;2023-03-19T15:38:05;4.13;;;2.77;;
9874;SDS011;4976;46.786;7.632;2023-03-19T15:40:34;3.00;;;2.60;;
9874;SDS011;4976;46.786;7.632;2023-03-19T15:43:03;3.00;;;2.70;;
9874;SDS011;4976;46.786;7.632;2023-03-19T15:45:31;5.90;;;2.57;;
9874;SDS011;4976;46.786;7.632;2023-03-19T15:48:02;3.73;;;2.67;;
9874;SDS011;4976;46.786;7.632;2023-03-19T15:50:35;2.23;;;2.03;;
9874;SDS011;4976;46.786;7.632;2023-03-19T15:53:06;2.43;;;2.10;;
9874;SDS011;4976;46.786;7.632;2023-03-19T15:55:37;3.07;;;2.30;;
9874;SDS011;4976;46.786;7.632;2023-03-19T15:58:06;3.60;;;2.60;;
9874;SDS011;4976;46.786;7.632;2023-03-19T16:00:36;4.33;;;2.60;;
9874;SDS011;4976;46.786;7.632;2023-03-19T16:03:10;2.73;;;2.37;;
9874;SDS011;4976;46.786;7.632;2023-03-19T16:05:43;2.60;;;2.23;;
9874;SDS011;4976;46.786;7.632;2023-03-19T16:08:23;2.97;;;2.60;;
9874;SDS011;4976;46.786;7.632;2023-03-19T16:10:51;3.20;;;2.40;;
9874;SDS011;4976;46.786;7.632;2023-03-19T16:13:25;3.87;;;2.70;;
9874;SDS011;4976;46.786;7.632;2023-03-19T16:15:54;2.83;;;2.57;;
9874;SDS011;4976;46.786;7.632;2023-03-19T16:18:27;3.53;;;2.60;;
9874;SDS011;4976;46.786;7.632;2023-03-19T16:20:59;4.30;;;2.63;;
9874;SDS011;4976;46.786;7.632;2023-03-19T16:23:31;3.10;;;2.57;;
9874;SDS011;4976;46.786;7.632;2023-03-19T16:26:12;3.17;;;2.17;;
9874;SDS011;4976;46.786;7.632;2023-03-19T16:28:42;4.13;;;3.10;;
9874;SDS011;4976;46.786;7.632;2023-03-19T16:31:20;2.97;;;2.60;;
9874;SDS011;4976;46.786;7.632;2023-03-19T16:33:51;5.17;;;2.90;;
9874;SDS011;4976;46.786;7.632;2023-03-19T16:36:26;3.20;;;2.67;;
9874;SDS011;4976;46.786;7.632;2023-03-19T16:38:56;3.27;;;2.40;;
9874;SDS011;4976;46.786;7.632;2023-03-19T16:41:37;4.67;;;3.20;;
9874;SDS011;4976;46.786;7.632;2023-03-19T16:44:11;3.37;;;2.90;;
9874;SDS011;4976;46.786;7.632;2023-03-19T16:46:47;4.50;;;3.33;;
9874;SDS011;4976;46.786;7.632;2023-03-19T16:49:23;3.33;;;2.50;;
9874;SDS011;4976;46.786;7.632;2023-03-19T16:51:51;3.67;;;2.20;;
9874;SDS011;4976;46.786;7.632;2023-03-19T16:54:18;2.93;;;2.43;;
9874;SDS011;4976;46.786;7.632;2023-03-19T16:56:47;3.10;;;2.20;;
9874;SDS011;4976;46.786;7.632;2023-03-19T16:59:15;2.83;;;2.07;;
9874;SDS011;4976;46.786;7.632;2023-03-19T17:01:52;2.23;;;2.03;;
9874;SDS011;4976;46.786;7.632;2023-03-19T17:04:19;2.20;;;2.00;;
9874;SDS011;4976;46.786;7.632;2023-03-19T17:06:49;2.23;;;1.90;;
9874;SDS011;4976;46.786;7.632;2023-03-19T17:09:16;2.50;;;2.30;;
9874;SDS011;4976;46.786;7.632;2023-03-19T17:11:43;5.47;;;3.30;;
9874;SDS011;4976;46.786;7.632;2023-03-19T17:14:12;2.90;;;2.53;;
9874;SDS011;4976;46.786;7.632;2023-03-19T17:16:43;1.30;;;1.20;;
9874;SDS011;4976;46.786;7.632;2023-03-19T17:19:15;1.80;;;1.70;;
9874;SDS011;4976;46.786;7.632;2023-03-19T17:21:44;3.37;;;2.27;;
9874;SDS011;4976;46.786;7.632;2023-03-19T17:24:21;1.70;;;1.60;;
9874;SDS011;4976;46.786;7.632;2023-03-19T17:26:49;2.10;;;2.00;;
9874;SDS011;4976;46.786;7.632;2023-03-19T17:29:17;1.40;;;1.30;;
9874;SDS011;4976;46.786;7.632;2023-03-19T17:31:45;1.90;;;1.77;;
9874;SDS011;4976;46.786;7.632;2023-03-19T17:34:13;4.20;;;3.80;;
9874;SDS011;4976;46.786;7.632;2023-03-19T17:36:43;2.57;;;2.23;;
9874;SDS011;4976;46.786;7.632;2023-03-19T17:39:14;1.87;;;1.47;;
9874;SDS011;4976;46.786;7.632;2023-03-19T17:41:43;1.93;;;1.50;;
9874;SDS011;4976;46.786;7.632;2023-03-19T17:44:10;2.77;;;2.20;;
9874;SDS011;4976;46.786;7.632;2023-03-19T17:46:39;2.70;;;2.23;;
9874;SDS011;4976;46.786;7.632;2023-03-19T17:49:11;3.27;;;2.00;;
9874;SDS011;4976;46.786;7.632;2023-03-19T17:51:42;2.97;;;2.73;;
9874;SDS011;4976;46.786;7.632;2023-03-19T17:54:09;2.43;;;2.23;;
9874;SDS011;4976;46.786;7.632;2023-03-19T17:56:38;5.33;;;3.40;;
9874;SDS011;4976;46.786;7.632;2023-03-19T17:59:09;1.83;;;1.70;;
9874;SDS011;4976;46.786;7.632;2023-03-19T18:01:36;3.77;;;2.00;;
9874;SDS011;4976;46.786;7.632;2023-03-19T18:04:05;3.37;;;2.10;;
9874;SDS011;4976;46.786;7.632;2023-03-19T18:06:33;2.43;;;2.10;;
9874;SDS011;4976;46.786;7.632;2023-03-19T18:09:03;2.97;;;1.87;;
9874;SDS011;4976;46.786;7.632;2023-03-19T18:11:33;2.20;;;2.00;;
9874;SDS011;4976;46.786;7.632;2023-03-19T18:14:00;2.30;;;2.10;;
9874;SDS011;4976;46.786;7.632;2023-03-19T18:16:29;3.50;;;2.17;;
9874;SDS011;4976;46.786;7.632;2023-03-19T18:19:01;3.40;;;2.30;;
9874;SDS011;4976;46.786;7.632;2023-03-19T18:21:30;2.37;;;2.10;;
9874;SDS011;4976;46.786;7.632;2023-03-19T18:23:57;3.60;;;3.03;;
9874;SDS011;4976;46.786;7.632;2023-03-19T18:26:30;26.53;;;15.60;;
9874;SDS011;4976;46.786;7.632;2023-03-19T18:28:57;66.03;;;34.40;;
9874;SDS011;4976;46.786;7.632;2023-03-19T18:31:25;77.47;;;41.20;;
9874;SDS011;4976;46.786;7.632;2023-03-19T18:33:57;21.17;;;13.17;;
9874;SDS011;4976;46.786;7.632;2023-03-19T18:36:27;19.33;;;11.27;;
9874;SDS011;4976;46.786;7.632;2023-03-19T18:38:56;9.00;;;5.40;;
9874;SDS011;4976;46.786;7.632;2023-03-19T18:41:25;3.53;;;2.50;;
9874;SDS011;4976;46.786;7.632;2023-03-19T18:43:53;2.73;;;2.47;;
9874;SDS011;4976;46.786;7.632;2023-03-19T18:46:22;3.20;;;2.90;;
9874;SDS011;4976;46.786;7.632;2023-03-19T18:48:53;3.80;;;3.40;;
9874;SDS011;4976;46.786;7.632;2023-03-19T18:51:25;2.90;;;2.70;;
9874;SDS011;4976;46.786;7.632;2023-03-19T18:53:52;3.13;;;2.87;;
9874;SDS011;4976;46.786;7.632;2023-03-19T18:56:20;3.00;;;2.67;;
9874;SDS011;4976;46.786;7.632;2023-03-19T18:58:51;4.20;;;3.10;;
9874;SDS011;4976;46.786;7.632;2023-03-19T19:01:19;3.23;;;2.93;;
9874;SDS011;4976;46.786;7.632;2023-03-19T19:03:47;3.33;;;3.03;;
9874;SDS011;4976;46.786;7.632;2023-03-19T19:06:19;4.07;;;3.13;;
9874;SDS011;4976;46.786;7.632;2023-03-19T19:08:48;3.23;;;2.90;;
9874;SDS011;4976;46.786;7.632;2023-03-19T19:11:18;3.23;;;2.93;;
9874;SDS011;4976;46.786;7.632;2023-03-19T19:13:48;3.20;;;2.90;;
9874;SDS011;4976;46.786;7.632;2023-03-19T19:16:19;3.47;;;3.17;;
9874;SDS011;4976;46.786;7.632;2023-03-19T19:18:51;2.93;;;2.67;;
9874;SDS011;4976;46.786;7.632;2023-03-19T19:21:22;4.23;;;3.63;;
9874;SDS011;4976;46.786;7.632;2023-03-19T19:23:50;3.53;;;3.23;;
9874;SDS011;4976;46.786;7.632;2023-03-19T19:26:19;5.13;;;4.63;;
9874;SDS011;4976;46.786;7.632;2023-03-19T19:28:49;6.70;;;5.50;;
9874;SDS011;4976;46.786;7.632;2023-03-19T19:31:20;4.80;;;4.37;;
9874;SDS011;4976;46.786;7.632;2023-03-19T19:33:50;3.13;;;2.83;;
9874;SDS011;4976;46.786;7.632;2023-03-19T19:36:17;3.67;;;3.30;;
9874;SDS011;4976;46.786;7.632;2023-03-19T19:38:46;3.27;;;2.97;;
9874;SDS011;4976;46.786;7.632;2023-03-19T19:41:16;4.73;;;2.77;;
9874;SDS011;4976;46.786;7.632;2023-03-19T19:43:54;4.13;;;3.50;;
9874;SDS011;4976;46.786;7.632;2023-03-19T19:46:25;3.40;;;3.10;;
9874;SDS011;4976;46.786;7.632;2023-03-19T19:48:53;3.93;;;3.63;;
9874;SDS011;4976;46.786;7.632;2023-03-19T19:51:20;3.53;;;3.10;;
9874;SDS011;4976;46.786;7.632;2023-03-19T19:53:50;2.77;;;2.53;;
9874;SDS011;4976;46.786;7.632;2023-03-19T19:56:18;3.60;;;3.20;;
9874;SDS011;4976;46.786;7.632;2023-03-19T19:58:47;3.40;;;3.10;;
9874;SDS011;4976;46.786;7.632;2023-03-19T20:01:17;4.47;;;3.77;;
9874;SDS011;4976;46.786;7.632;2023-03-19T20:03:46;3.60;;;3.30;;
9874;SDS011;4976;46.786;7.632;2023-03-19T20:06:14;4.90;;;4.20;;
9874;SDS011;4976;46.786;7.632;2023-03-19T20:08:41;4.97;;;3.77;;
9874;SDS011;4976;46.786;7.632;2023-03-19T20:11:17;3.03;;;2.73;;
9874;SDS011;4976;46.786;7.632;2023-03-19T20:13:46;3.10;;;2.80;;
9874;SDS011;4976;46.786;7.632;2023-03-19T20:16:16;3.07;;;2.77;;
9874;SDS011;4976;46.786;7.632;2023-03-19T20:18:44;3.60;;;3.30;;
9874;SDS011;4976;46.786;7.632;2023-03-19T20:21:12;3.30;;;3.00;;
9874;SDS011;4976;46.786;7.632;2023-03-19T20:23:41;3.70;;;3.17;;
9874;SDS011;4976;46.786;7.632;2023-03-19T20:26:10;3.00;;;2.70;;
9874;SDS011;4976;46.786;7.632;2023-03-19T20:28:40;3.83;;;3.30;;
9874;SDS011;4976;46.786;7.632;2023-03-19T20:31:18;3.83;;;3.40;;
9874;SDS011;4976;46.786;7.632;2023-03-19T20:33:52;5.70;;;3.40;;
9874;SDS011;4976;46.786;7.632;2023-03-19T20:36:20;3.67;;;3.33;;
9874;SDS011;4976;46.786;7.632;2023-03-19T20:38:47;3.20;;;2.80;;
9874;SDS011;4976;46.786;7.632;2023-03-19T20:41:16;3.87;;;3.53;;
9874;SDS011;4976;46.786;7.632;2023-03-19T20:43:46;3.27;;;3.00;;
9874;SDS011;4976;46.786;7.632;2023-03-19T20:46:18;4.10;;;3.80;;
9874;SDS011;4976;46.786;7.632;2023-03-19T20:48:47;6.97;;;4.67;;
9874;SDS011;4976;46.786;7.632;2023-03-19T20:51:19;4.97;;;4.57;;
9874;SDS011;4976;46.786;7.632;2023-03-19T20:53:51;6.83;;;4.53;;
9874;SDS011;4976;46.786;7.632;2023-03-19T20:56:20;4.17;;;3.77;;
9874;SDS011;4976;46.786;7.632;2023-03-19T20:58:51;4.23;;;3.53;;
9874;SDS011;4976;46.786;7.632;2023-03-19T21:01:18;3.47;;;3.17;;
9874;SDS011;4976;46.786;7.632;2023-03-19T21:03:47;3.40;;;3.07;;
9874;SDS011;4976;46.786;7.632;2023-03-19T21:06:19;3.93;;;3.37;;
9874;SDS011;4976;46.786;7.632;2023-03-19T21:08:48;3.00;;;2.70;;
9874;SDS011;4976;46.786;7.632;2023-03-19T21:11:22;2.50;;;2.30;;
9874;SDS011;4976;46.786;7.632;2023-03-19T21:14:03;3.17;;;2.40;;
9874;SDS011;4976;46.786;7.632;2023-03-19T21:16:30;2.60;;;2.40;;
9874;SDS011;4976;46.786;7.632;2023-03-19T21:18:58;3.23;;;2.93;;
9874;SDS011;4976;46.786;7.632;2023-03-19T21:21:30;3.30;;;2.60;;
9874;SDS011;4976;46.786;7.632;2023-03-19T21:24:11;2.80;;;2.43;;
9874;SDS011;4976;46.786;7.632;2023-03-19T21:26:44;4.23;;;2.60;;
9874;SDS011;4976;46.786;7.632;2023-03-19T21:29:14;2.50;;;2.30;;
9874;SDS011;4976;46.786;7.632;2023-03-19T21:31:52;2.70;;;2.50;;
9874;SDS011;4976;46.786;7.632;2023-03-19T21:34:23;3.30;;;3.00;;
9874;SDS011;4976;46.786;7.632;2023-03-19T21:36:52;3.20;;;2.90;;
9874;SDS011;4976;46.786;7.632;2023-03-19T21:39:19;4.83;;;3.03;;
9874;SDS011;4976;46.786;7.632;2023-03-19T21:41:49;3.73;;;3.10;;
9874;SDS011;4976;46.786;7.632;2023-03-19T21:44:19;3.17;;;2.80;;
9874;SDS011;4976;46.786;7.632;2023-03-19T21:46:48;2.23;;;2.03;;
9874;SDS011;4976;46.786;7.632;2023-03-19T21:49:18;1.90;;;1.70;;
9874;SDS011;4976;46.786;7.632;2023-03-19T21:51:46;2.20;;;2.00;;
9874;SDS011;4976;46.786;7.632;2023-03-19T21:54:15;1.80;;;1.67;;
9874;SDS011;4976;46.786;7.632;2023-03-19T21:56:47;1.77;;;1.67;;
9874;SDS011;4976;46.786;7.632;2023-03-19T21:59:20;1.50;;;1.40;;
9874;SDS011;4976;46.786;7.632;2023-03-19T22:01:58;2.30;;;1.10;;
9874;SDS011;4976;46.786;7.632;2023-03-19T22:04:28;1.33;;;1.07;;
9874;SDS011;4976;46.786;7.632;2023-03-19T22:06:55;1.20;;;1.10;;
9874;SDS011;4976;46.786;7.632;2023-03-19T22:09:23;1.50;;;1.40;;
9874;SDS011;4976;46.786;7.632;2023-03-19T22:11:50;1.27;;;1.17;;
9874;SDS011;4976;46.786;7.632;2023-03-19T22:14:21;0.90;;;0.90;;
9874;SDS011;4976;46.786;7.632;2023-03-19T22:16:57;0.83;;;0.83;;
9874;SDS011;4976;46.786;7.632;2023-03-19T22:19:27;1.10;;;1.00;;
9874;SDS011;4976;46.786;7.632;2023-03-19T22:21:54;1.03;;;1.03;;
9874;SDS011;4976;46.786;7.632;2023-03-19T22:24:22;0.83;;;0.83;;
9874;SDS011;4976;46.786;7.632;2023-03-19T22:26:49;0.77;;;0.77;;
9874;SDS011;4976;46.786;7.632;2023-03-19T22:29:23;0.90;;;0.90;;
9874;SDS011;4976;46.786;7.632;2023-03-19T22:31:53;0.97;;;0.80;;
9874;SDS011;4976;46.786;7.632;2023-03-19T22:34:34;0.60;;;0.60;;
9874;SDS011;4976;46.786;7.632;2023-03-19T22:37:04;0.70;;;0.70;;
9874;SDS011;4976;46.786;7.632;2023-03-19T22:39:47;0.63;;;0.63;;
9874;SDS011;4976;46.786;7.632;2023-03-19T22:42:14;0.70;;;0.70;;
9874;SDS011;4976;46.786;7.632;2023-03-19T22:44:44;0.80;;;0.80;;
9874;SDS011;4976;46.786;7.632;2023-03-19T22:47:15;0.90;;;0.90;;
9874;SDS011;4976;46.786;7.632;2023-03-19T22:49:45;0.97;;;0.97;;
9874;SDS011;4976;46.786;7.632;2023-03-19T22:52:17;0.70;;;0.70;;
9874;SDS011;4976;46.786;7.632;2023-03-19T22:54:44;1.03;;;0.80;;
9874;SDS011;4976;46.786;7.632;2023-03-19T22:57:12;0.73;;;0.73;;
9874;SDS011;4976;46.786;7.632;2023-03-19T22:59:39;0.63;;;0.63;;
